Ostby, North Dakota
Current Conditions -  °F | °C
As of 6:15 AM on Monday 26 Jan 2015 (Local Time) from KRUG Reporting Station
Clear Clear  
Wind Chill: 21°   Ceiling: Unl
Heat Index: 32°   Visibility: 10mi
Dew Point: 28°   Wind: 16mph
Humidity: 87%   Direction: 290°WNW
Pressure: 29.76"   Gusts: NA
Location:  48.5496°N, 100.255°W
Report Text: KRUG 261215Z AUTO 29014KT 10SM CLR 00/M02 A2976 RMK AO2
Loading
Personal Weather Stations






























Interactive Weather Map New forecast layout! Learn more

10-Day Weather Forecast

Advertisements
Track Severe Weather on mobile